Time;durP1;ratioP1;P1;durP2;ratioP2;P2;SDS_P1;SDS_P2;PMS_P1;PMS_P2;Temp;Humidity;BMP_temperature;BMP_pressure;BME280_temperature;BME280_humidity;BME280_pressure;Samples;Min_cycle;Max_cycle;Signal;HPM_P1;HPM_P2
2023/12/05 00:00:48;;;;;;;28.55;18.05;;;0.70;99.90;;;;;;5074924;28;20040;-73
2023/12/05 00:03:14;;;;;;;28.88;20.27;;;0.70;99.90;;;;;;5057812;28;20048;-74
2023/12/05 00:05:40;;;;;;;31.20;20.58;;;0.80;99.90;;;;;;5057886;28;20048;-73
2023/12/05 00:08:05;;;;;;;28.48;19.70;;;0.60;99.90;;;;;;5074628;28;20032;-73
2023/12/05 00:10:32;;;;;;;29.95;21.10;;;0.60;99.90;;;;;;5074258;28;20044;-73
2023/12/05 00:13:00;;;;;;;29.05;19.73;;;0.60;99.90;;;;;;5074550;28;20531;-73
2023/12/05 00:15:26;;;;;;;28.25;19.73;;;0.60;99.90;;;;;;5057616;28;20040;-73
2023/12/05 00:17:52;;;;;;;29.35;19.50;;;0.60;99.90;;;;;;5076003;28;20481;-73
2023/12/05 00:20:18;;;;;;;25.58;17.50;;;0.70;99.90;;;;;;5078293;28;20071;-74
2023/12/05 00:22:43;;;;;;;25.52;17.38;;;0.70;99.90;;;;;;5078072;28;20090;-73
2023/12/05 00:25:09;;;;;;;27.20;19.08;;;0.60;99.90;;;;;;5061474;28;20048;-73
2023/12/05 00:27:35;;;;;;;26.23;18.15;;;0.70;99.90;;;;;;5078175;28;20131;-73
2023/12/05 00:30:01;;;;;;;23.15;14.55;;;0.70;99.90;;;;;;5061666;28;20130;-73
2023/12/05 00:32:27;;;;;;;30.85;20.55;;;0.70;99.90;;;;;;5077864;28;20051;-73
2023/12/05 00:34:53;;;;;;;29.38;20.80;;;0.80;99.90;;;;;;5078023;28;20047;-73
2023/12/05 00:37:18;;;;;;;26.45;18.88;;;0.60;99.90;;;;;;5078263;28;20043;-74
2023/12/05 00:39:44;;;;;;;31.52;21.88;;;0.60;99.90;;;;;;5078143;28;20043;-74
2023/12/05 00:42:10;;;;;;;30.73;21.02;;;0.60;99.90;;;;;;5077798;28;20036;-74
2023/12/05 00:44:35;;;;;;;31.90;21.40;;;0.60;99.90;;;;;;5061285;28;20476;-74
2023/12/05 00:47:04;;;;;;;29.95;21.10;;;0.60;99.90;;;;;;5060951;28;20040;-73
2023/12/05 00:49:31;;;;;;;28.65;20.92;;;0.60;99.90;;;;;;5077952;28;20517;-73
2023/12/05 00:51:57;;;;;;;30.73;21.77;;;0.60;99.90;;;;;;5077655;28;20091;-73
2023/12/05 00:54:22;;;;;;;32.17;21.52;;;0.60;99.90;;;;;;5077846;28;20086;-73
2023/12/05 00:56:48;;;;;;;32.78;22.38;;;0.60;99.90;;;;;;5077441;28;20094;-73
2023/12/05 00:59:14;;;;;;;33.47;23.52;;;0.60;99.90;;;;;;5060793;28;20047;-73
2023/12/05 01:01:40;;;;;;;31.95;22.27;;;0.60;99.90;;;;;;5077774;28;20522;-73
2023/12/05 01:04:05;;;;;;;34.45;24.05;;;0.60;99.90;;;;;;5077438;28;20051;-73
2023/12/05 01:06:31;;;;;;;35.33;24.15;;;0.60;99.90;;;;;;5061030;28;20467;-74
2023/12/05 01:08:57;;;;;;;35.40;24.98;;;0.60;99.90;;;;;;5077587;28;20032;-73
2023/12/05 01:11:22;;;;;;;38.88;27.02;;;0.50;99.90;;;;;;5060971;28;20040;-73
2023/12/05 01:13:48;;;;;;;40.97;27.05;;;0.50;99.90;;;;;;5077180;28;20072;-73
2023/12/05 01:16:14;;;;;;;37.13;25.73;;;0.50;99.90;;;;;;5077108;28;20037;-74
2023/12/05 01:18:40;;;;;;;47.58;30.67;;;0.50;99.90;;;;;;5044181;28;20039;-74
2023/12/05 01:21:06;;;;;;;53.20;32.67;;;0.50;99.90;;;;;;5077082;28;20169;-73
2023/12/05 01:23:32;;;;;;;44.40;29.02;;;0.50;99.90;;;;;;5076925;28;20543;-73
2023/12/05 01:25:57;;;;;;;39.40;26.08;;;0.60;99.90;;;;;;5060404;28;20036;-74
2023/12/05 01:28:23;;;;;;;34.60;22.75;;;0.60;99.90;;;;;;5060537;28;20495;-73
2023/12/05 01:30:49;;;;;;;40.72;26.63;;;0.50;99.90;;;;;;5076930;28;20035;-73
2023/12/05 01:33:15;;;;;;;42.28;27.70;;;0.50;99.90;;;;;;5060376;28;20545;-73
2023/12/05 01:35:40;;;;;;;56.03;34.80;;;0.60;99.90;;;;;;5076544;28;20070;-73
2023/12/05 01:38:06;;;;;;;56.33;35.35;;;0.50;99.90;;;;;;5076660;28;20044;-74
2023/12/05 01:40:32;;;;;;;48.20;31.45;;;0.50;99.90;;;;;;5043707;28;20044;-73
2023/12/05 01:42:57;;;;;;;52.15;31.45;;;0.50;99.90;;;;;;5060244;28;20032;-73
2023/12/05 01:45:23;;;;;;;57.33;35.92;;;0.50;99.90;;;;;;5060171;28;20040;-73
2023/12/05 01:47:49;;;;;;;47.20;31.27;;;0.50;99.90;;;;;;5060208;28;20042;-74
2023/12/05 01:50:20;;;;;;;47.38;31.45;;;0.50;99.90;;;;;;5076554;28;20044;-70
2023/12/05 01:52:53;;;;;;;48.40;32.15;;;0.50;99.90;;;;;;5076463;28;20481;-70
2023/12/05 01:55:21;;;;;;;52.17;33.72;;;0.50;99.90;;;;;;5076266;28;20484;-70
2023/12/05 01:57:47;;;;;;;44.25;30.42;;;0.50;99.90;;;;;;5076575;28;20044;-70
2023/12/05 02:00:17;;;;;;;44.40;30.50;;;0.60;99.90;;;;;;5076299;28;20039;-70
2023/12/05 02:02:43;;;;;;;42.53;28.45;;;0.60;99.90;;;;;;5076329;28;20035;-70
2023/12/05 02:05:10;;;;;;;43.28;30.05;;;0.80;99.90;;;;;;5076198;28;20077;-70
2023/12/05 02:07:36;;;;;;;50.25;32.50;;;0.60;99.90;;;;;;5075940;28;20134;-70
2023/12/05 02:10:04;;;;;;;38.40;27.60;;;0.60;99.90;;;;;;5075990;28;20092;-71
2023/12/05 02:12:29;;;;;;;41.53;28.77;;;0.60;99.90;;;;;;5075889;28;20051;-71
2023/12/05 02:14:56;;;;;;;45.13;30.85;;;0.70;99.90;;;;;;5059414;28;20507;-70
2023/12/05 02:17:34;;;;;;;39.75;28.63;;;0.60;99.90;;;;;;5076098;28;20043;-70
2023/12/05 02:20:14;;;;;;;47.10;31.40;;;0.60;99.90;;;;;;5059561;28;20118;-70
2023/12/05 02:23:07;;;;;;;34.97;25.02;;;0.60;99.90;;;;;;5075980;28;20400;-71
2023/12/05 02:25:42;;;;;;;35.28;25.10;;;0.70;99.90;;;;;;5075829;28;20177;-70
2023/12/05 02:28:09;;;;;;;44.20;30.55;;;0.70;99.90;;;;;;5075879;28;20480;-70
2023/12/05 02:30:35;;;;;;;43.83;30.42;;;0.70;99.90;;;;;;5075680;28;20044;-70
2023/12/05 02:33:01;;;;;;;43.40;29.40;;;0.60;99.90;;;;;;5075591;28;20040;-70
2023/12/05 02:35:27;;;;;;;36.60;25.75;;;0.60;99.90;;;;;;5075349;28;20078;-70
2023/12/05 02:38:09;;;;;;;40.83;28.88;;;0.70;99.90;;;;;;5075573;28;20035;-70
2023/12/05 02:40:44;;;;;;;36.55;26.80;;;0.70;99.90;;;;;;5074747;28;20106;-70
2023/12/05 02:43:25;;;;;;;43.78;29.50;;;0.70;99.90;;;;;;5075334;28;20074;-70
2023/12/05 02:45:52;;;;;;;36.28;25.52;;;0.60;99.90;;;;;;5075961;28;20048;-70
2023/12/05 02:48:19;;;;;;;37.70;25.88;;;0.80;99.90;;;;;;5075404;28;20048;-70
2023/12/05 02:50:46;;;;;;;44.97;30.17;;;0.70;99.90;;;;;;5058906;28;20048;-70
2023/12/05 02:53:11;;;;;;;42.25;29.92;;;0.70;99.90;;;;;;5074975;28;20120;-70
2023/12/05 02:55:38;;;;;;;46.10;31.58;;;0.70;99.90;;;;;;5075144;28;20040;-70
2023/12/05 02:58:04;;;;;;;46.03;31.42;;;0.70;99.90;;;;;;5075618;28;20074;-73
2023/12/05 03:00:29;;;;;;;40.10;28.30;;;0.70;99.90;;;;;;5075286;28;20044;-71
2023/12/05 03:02:55;;;;;;;46.83;31.35;;;0.70;99.90;;;;;;5075461;28;20101;-70
2023/12/05 03:05:21;;;;;;;43.70;29.67;;;0.70;99.90;;;;;;5075331;28;20040;-70
2023/12/05 03:07:47;;;;;;;43.75;29.05;;;0.70;99.90;;;;;;5074940;28;20131;-70
2023/12/05 03:10:12;;;;;;;41.65;28.23;;;0.70;99.90;;;;;;5075044;28;20555;-70
2023/12/05 03:12:38;;;;;;;48.17;31.95;;;0.70;99.90;;;;;;5058597;28;20032;-71
2023/12/05 03:15:05;;;;;;;45.50;31.13;;;0.70;99.90;;;;;;5058193;28;20044;-71
2023/12/05 03:17:30;;;;;;;49.33;33.65;;;0.70;99.90;;;;;;5074889;28;20047;-71
2023/12/05 03:19:56;;;;;;;48.97;32.55;;;0.70;99.90;;;;;;5058277;28;20039;-71
2023/12/05 03:22:22;;;;;;;50.13;34.15;;;0.70;99.90;;;;;;5058341;28;20032;-71
2023/12/05 03:24:50;;;;;;;51.33;34.63;;;0.70;99.90;;;;;;5075225;28;20104;-70
2023/12/05 03:27:16;;;;;;;56.80;38.95;;;0.70;99.90;;;;;;5074826;28;20047;-70
2023/12/05 03:29:41;;;;;;;55.30;35.65;;;1.30;99.90;;;;;;5075112;28;20432;-70
2023/12/05 03:32:07;;;;;;;49.17;33.80;;;0.90;99.90;;;;;;5058441;28;20123;-70
2023/12/05 03:34:33;;;;;;;47.63;32.55;;;0.70;99.90;;;;;;5074699;28;20040;-70
2023/12/05 03:36:59;;;;;;;50.55;33.67;;;0.70;99.90;;;;;;5058004;28;20044;-68
2023/12/05 03:39:24;;;;;;;49.05;33.85;;;0.70;99.90;;;;;;5058311;28;20043;-68
2023/12/05 03:41:50;;;;;;;47.00;32.22;;;0.70;99.90;;;;;;5074634;28;20082;-68
2023/12/05 03:44:16;;;;;;;47.47;32.53;;;0.70;99.90;;;;;;5041201;28;20381;-68
2023/12/05 03:46:42;;;;;;;46.25;32.03;;;0.70;99.90;;;;;;5058035;28;20561;-68
2023/12/05 03:49:07;;;;;;;51.38;34.22;;;0.70;99.90;;;;;;5074555;28;20036;-68
2023/12/05 03:51:33;;;;;;;48.05;33.75;;;0.70;99.90;;;;;;5074305;28;20500;-69
2023/12/05 03:53:59;;;;;;;48.65;33.40;;;0.80;99.90;;;;;;5061029;28;20101;-69
2023/12/05 03:56:25;;;;;;;43.25;29.35;;;0.80;99.90;;;;;;5061889;28;20058;-69
2023/12/05 03:58:51;;;;;;;51.03;35.80;;;0.80;99.90;;;;;;5078912;28;20040;-69
2023/12/05 04:01:17;;;;;;;47.58;32.33;;;0.80;99.90;;;;;;5078598;28;20093;-69
2023/12/05 04:03:43;;;;;;;52.95;34.88;;;0.90;99.90;;;;;;5061808;28;20036;-69
2023/12/05 04:06:18;;;;;;;52.40;34.80;;;0.70;99.90;;;;;;5061929;28;20053;-69
2023/12/05 04:08:43;;;;;;;53.42;34.90;;;0.70;99.90;;;;;;5062118;28;20097;-72
2023/12/05 04:11:09;;;;;;;52.50;35.30;;;0.80;99.90;;;;;;5078401;28;20079;-72
2023/12/05 04:13:36;;;;;;;44.55;29.25;;;0.70;99.90;;;;;;5078990;28;20196;-72
2023/12/05 04:16:02;;;;;;;50.05;34.92;;;0.70;99.90;;;;;;5061617;28;20495;-73
2023/12/05 04:18:28;;;;;;;53.03;36.20;;;0.70;99.90;;;;;;5061593;28;20036;-73
2023/12/05 04:20:54;;;;;;;54.97;36.83;;;0.70;99.90;;;;;;5061744;28;20036;-72
2023/12/05 04:23:20;;;;;;;49.10;32.80;;;0.80;99.90;;;;;;5061443;28;20105;-72
2023/12/05 04:25:45;;;;;;;46.47;31.83;;;0.80;99.90;;;;;;5061379;28;20237;-72
2023/12/05 04:28:11;;;;;;;50.58;33.65;;;0.80;99.90;;;;;;5078656;28;20541;-72
2023/12/05 04:30:37;;;;;;;55.58;37.15;;;0.80;99.90;;;;;;5078210;28;20050;-72
2023/12/05 04:33:03;;;;;;;55.75;37.80;;;0.70;99.90;;;;;;5045066;28;20043;-72
2023/12/05 04:35:28;;;;;;;53.00;33.92;;;0.70;99.90;;;;;;5061468;28;20048;-73
2023/12/05 04:37:54;;;;;;;55.47;36.63;;;0.70;99.90;;;;;;5061299;28;20043;-72
2023/12/05 04:40:20;;;;;;;55.40;37.75;;;0.70;99.90;;;;;;5044467;28;20036;-73
2023/12/05 04:42:46;;;;;;;54.22;36.88;;;1.10;99.90;;;;;;5061385;28;20134;-72
2023/12/05 04:45:12;;;;;;;61.70;39.75;;;0.80;99.90;;;;;;5061174;28;20093;-72
2023/12/05 04:47:37;;;;;;;52.85;35.53;;;0.80;99.90;;;;;;5077646;28;20499;-72
2023/12/05 04:50:03;;;;;;;60.72;38.55;;;0.80;99.90;;;;;;5061077;28;20048;-72
2023/12/05 04:52:29;;;;;;;56.35;36.25;;;0.80;99.90;;;;;;5077456;28;20100;-72
2023/12/05 04:54:55;;;;;;;48.97;32.80;;;0.80;99.90;;;;;;5061001;28;20047;-73
2023/12/05 04:57:20;;;;;;;57.03;37.72;;;0.80;99.90;;;;;;5060926;28;20040;-72
2023/12/05 04:59:46;;;;;;;55.58;37.83;;;0.80;99.90;;;;;;5077448;28;20040;-73
2023/12/05 05:02:12;;;;;;;45.60;28.27;;;0.80;99.90;;;;;;5077518;28;20047;-72
2023/12/05 05:04:38;;;;;;;59.28;37.95;;;0.80;99.90;;;;;;5077196;28;20043;-72
2023/12/05 05:07:04;;;;;;;57.28;36.67;;;0.80;99.90;;;;;;5077352;28;20065;-73
2023/12/05 05:09:30;;;;;;;51.90;35.00;;;0.80;99.90;;;;;;5060910;28;20047;-72
2023/12/05 05:11:56;;;;;;;58.78;37.90;;;1.20;99.90;;;;;;5077547;28;20047;-73
2023/12/05 05:14:22;;;;;;;59.08;38.50;;;0.70;99.90;;;;;;5044236;28;20046;-72
2023/12/05 05:16:48;;;;;;;53.05;34.05;;;0.80;99.90;;;;;;5077117;28;20085;-72
2023/12/05 05:19:13;;;;;;;59.92;38.72;;;0.80;99.90;;;;;;5077154;28;20036;-72
2023/12/05 05:21:39;;;;;;;58.65;36.85;;;0.80;99.90;;;;;;5060700;28;20459;-72
2023/12/05 05:24:05;;;;;;;46.95;28.55;;;0.80;99.90;;;;;;5077277;28;20043;-72
2023/12/05 05:26:31;;;;;;;58.80;37.17;;;0.80;99.90;;;;;;5077083;28;20430;-74
2023/12/05 05:28:56;;;;;;;59.35;39.33;;;0.80;99.90;;;;;;5076938;28;20040;-72
2023/12/05 05:31:22;;;;;;;59.70;38.28;;;0.80;99.90;;;;;;5076869;28;20036;-71
2023/12/05 05:33:48;;;;;;;57.58;34.17;;;0.70;99.90;;;;;;5060437;28;20040;-69
2023/12/05 05:36:14;;;;;;;58.55;36.90;;;0.80;99.90;;;;;;5059924;28;20036;-69
2023/12/05 05:38:40;;;;;;;63.22;40.17;;;0.80;99.90;;;;;;5076950;28;20365;-70
2023/12/05 05:41:06;;;;;;;67.97;40.15;;;0.80;99.90;;;;;;5060018;28;20051;-69
2023/12/05 05:43:32;;;;;;;69.03;42.47;;;0.80;99.90;;;;;;5076884;28;20042;-69
2023/12/05 05:45:58;;;;;;;73.07;41.80;;;0.80;99.90;;;;;;5076502;28;20126;-69
2023/12/05 05:48:24;;;;;;;79.03;50.47;;;0.80;99.90;;;;;;5076714;28;20036;-69
2023/12/05 05:50:50;;;;;;;66.32;40.65;;;0.80;99.90;;;;;;5076479;28;20040;-69
2023/12/05 05:53:16;;;;;;;65.65;41.28;;;0.70;99.90;;;;;;5076426;28;20063;-70
2023/12/05 05:55:41;;;;;;;70.45;42.30;;;0.80;99.90;;;;;;5059812;28;20036;-69
2023/12/05 05:58:11;;;;;;;68.15;41.92;;;0.70;99.90;;;;;;5059692;28;20036;-70
2023/12/05 06:00:37;;;;;;;63.08;39.97;;;0.70;99.90;;;;;;5059719;28;20032;-69
2023/12/05 06:03:03;;;;;;;69.95;41.70;;;0.70;99.90;;;;;;5076505;28;20038;-69
2023/12/05 06:05:29;;;;;;;64.22;39.70;;;0.70;99.90;;;;;;5076178;28;20051;-69
2023/12/05 06:07:55;;;;;;;58.03;35.97;;;0.80;99.90;;;;;;5076177;28;20044;-69
2023/12/05 06:10:21;;;;;;;61.88;39.97;;;0.80;99.90;;;;;;5059367;28;20093;-69
2023/12/05 06:12:47;;;;;;;65.50;39.45;;;0.80;99.90;;;;;;5075850;28;20044;-70
2023/12/05 06:15:13;;;;;;;73.20;42.50;;;0.70;99.90;;;;;;5075156;28;20115;-70
2023/12/05 06:17:39;;;;;;;66.70;41.17;;;0.70;99.90;;;;;;5075784;28;20070;-70
2023/12/05 06:20:06;;;;;;;69.25;41.70;;;0.70;99.90;;;;;;5059271;28;20071;-69
2023/12/05 06:22:32;;;;;;;74.55;44.60;;;0.70;99.90;;;;;;5059277;28;20066;-70
2023/12/05 06:24:57;;;;;;;80.13;46.20;;;0.70;99.90;;;;;;5075800;28;20538;-70
2023/12/05 06:27:23;;;;;;;71.97;42.78;;;0.70;99.90;;;;;;5059140;28;20040;-70
2023/12/05 06:29:49;;;;;;;76.07;44.92;;;0.70;99.90;;;;;;5075850;28;20044;-69
2023/12/05 06:32:15;;;;;;;75.97;43.65;;;0.70;99.90;;;;;;5075868;28;20511;-70
2023/12/05 06:34:40;;;;;;;72.95;43.78;;;0.70;99.90;;;;;;5075739;28;20079;-69
2023/12/05 06:37:06;;;;;;;70.93;42.22;;;0.70;99.90;;;;;;5042362;28;20117;-69
2023/12/05 06:39:32;;;;;;;73.43;45.58;;;0.70;99.90;;;;;;5075442;28;20036;-70
2023/12/05 06:41:57;;;;;;;74.30;43.42;;;0.70;99.90;;;;;;5075542;28;20040;-70
2023/12/05 06:44:23;;;;;;;78.05;44.67;;;0.60;99.90;;;;;;5058894;28;20040;-69
2023/12/05 06:46:49;;;;;;;72.65;41.17;;;0.60;99.90;;;;;;5075590;28;20085;-69
2023/12/05 06:49:15;;;;;;;75.50;42.22;;;0.60;99.90;;;;;;5058726;28;20044;-69
2023/12/05 06:51:41;;;;;;;83.18;43.63;;;0.60;99.90;;;;;;5075153;28;20043;-70
2023/12/05 06:54:06;;;;;;;79.50;40.00;;;0.60;99.90;;;;;;5039452;28;20131;-70
2023/12/05 06:56:32;;;;;;;74.18;40.60;;;0.60;99.90;;;;;;5055153;28;20036;-69
2023/12/05 06:59:00;;;;;;;70.22;37.97;;;0.60;99.90;;;;;;5055218;28;20127;-69
2023/12/05 07:01:27;;;;;;;75.13;40.90;;;0.70;99.90;;;;;;5039537;28;20393;-70
2023/12/05 07:03:52;;;;;;;91.13;43.92;;;0.60;99.90;;;;;;5055132;28;20040;-70
2023/12/05 07:06:18;;;;;;;78.97;41.47;;;0.60;99.90;;;;;;5038556;28;20055;-70
2023/12/05 07:08:44;;;;;;;80.75;41.90;;;0.60;99.90;;;;;;5055328;28;20412;-70
2023/12/05 07:11:10;;;;;;;84.32;45.05;;;0.60;99.90;;;;;;5055156;28;20127;-70
2023/12/05 07:13:36;;;;;;;80.35;42.00;;;0.60;99.90;;;;;;5055110;28;20048;-70
2023/12/05 07:16:01;;;;;;;72.07;40.55;;;0.60;99.90;;;;;;5054871;28;20130;-70
2023/12/05 07:18:27;;;;;;;92.25;45.22;;;0.60;99.90;;;;;;5055021;28;20036;-70
2023/12/05 07:20:53;;;;;;;86.13;43.33;;;0.60;99.90;;;;;;5054829;28;20044;-70
2023/12/05 07:23:19;;;;;;;73.22;41.10;;;0.60;99.90;;;;;;5054770;28;20451;-70
2023/12/05 07:25:44;;;;;;;83.10;43.33;;;0.60;99.90;;;;;;5038310;28;20432;-69
2023/12/05 07:28:10;;;;;;;77.97;41.75;;;0.60;99.90;;;;;;5054632;28;20044;-70
2023/12/05 07:30:36;;;;;;;84.85;44.17;;;0.60;99.90;;;;;;5021622;28;20109;-70
2023/12/05 07:33:01;;;;;;;80.65;42.65;;;0.50;99.90;;;;;;5054626;28;20412;-69
2023/12/05 07:35:27;;;;;;;85.43;43.70;;;0.50;99.90;;;;;;5038137;28;20045;-70
2023/12/05 07:37:53;;;;;;;82.88;42.70;;;0.50;99.90;;;;;;5054593;28;20386;-69
2023/12/05 07:40:19;;;;;;;77.57;41.58;;;0.50;99.90;;;;;;5038408;28;20029;-73
2023/12/05 07:42:44;;;;;;;86.00;43.08;;;0.50;99.90;;;;;;5037939;28;20036;-72
2023/12/05 07:45:10;;;;;;;74.07;40.92;;;0.50;99.90;;;;;;5037985;28;20114;-73
2023/12/05 07:47:36;;;;;;;92.88;45.20;;;0.50;99.90;;;;;;5054510;28;20037;-72
2023/12/05 07:50:02;;;;;;;85.88;44.30;;;0.50;99.90;;;;;;5054840;28;20374;-73
2023/12/05 07:52:28;;;;;;;87.00;44.60;;;0.50;99.90;;;;;;5054239;28;20064;-73
2023/12/05 07:54:53;;;;;;;99.40;47.38;;;0.50;99.90;;;;;;5054345;28;20127;-73
2023/12/05 07:57:22;;;;;;;95.47;47.20;;;0.50;99.90;;;;;;5054376;28;20090;-74
2023/12/05 07:59:51;;;;;;;79.28;44.42;;;0.50;99.90;;;;;;5054717;28;20047;-73
2023/12/05 08:02:17;;;;;;;71.93;39.97;;;0.50;99.90;;;;;;5021739;28;20378;-73
2023/12/05 08:04:42;;;;;;;83.60;43.58;;;0.50;99.90;;;;;;5054610;28;20397;-73
2023/12/05 08:07:08;;;;;;;76.65;42.47;;;0.60;99.90;;;;;;5054349;28;20036;-73
2023/12/05 08:09:34;;;;;;;95.57;44.58;;;0.60;99.90;;;;;;5054391;28;20049;-73
2023/12/05 08:12:00;;;;;;;76.45;39.70;;;0.50;99.90;;;;;;5054384;28;20416;-73
2023/12/05 08:14:26;;;;;;;87.78;44.42;;;0.50;99.90;;;;;;5054884;28;20048;-73
2023/12/05 08:16:51;;;;;;;104.22;49.50;;;0.50;99.90;;;;;;5054262;28;20032;-73
2023/12/05 08:19:17;;;;;;;71.70;39.92;;;0.50;99.90;;;;;;5054405;28;20496;-73
2023/12/05 08:21:43;;;;;;;84.82;44.17;;;0.60;99.90;;;;;;5037808;28;20119;-73
2023/12/05 08:24:09;;;;;;;74.32;41.15;;;0.50;99.90;;;;;;5038041;28;20365;-73
2023/12/05 08:26:34;;;;;;;86.35;47.28;;;0.50;99.90;;;;;;5054167;28;20093;-72
2023/12/05 08:29:01;;;;;;;70.40;39.72;;;0.50;99.90;;;;;;5037838;28;20036;-74
2023/12/05 08:31:27;;;;;;;69.30;38.08;;;0.50;99.90;;;;;;5037797;28;20033;-73
2023/12/05 08:33:52;;;;;;;70.80;40.70;;;0.50;99.90;;;;;;5037615;28;20048;-74
2023/12/05 08:36:18;;;;;;;74.90;43.58;;;0.50;99.90;;;;;;5053981;28;20040;-74
2023/12/05 08:38:44;;;;;;;73.57;40.50;;;0.50;99.90;;;;;;5054932;28;20121;-74
2023/12/05 08:41:19;;;;;;;76.70;43.30;;;0.50;99.90;;;;;;5058068;28;20562;-73
2023/12/05 08:43:48;;;;;;;78.47;43.58;;;0.60;99.90;;;;;;5040905;28;20127;-74
2023/12/05 08:46:15;;;;;;;67.32;37.88;;;0.80;99.90;;;;;;5057589;28;20094;-72
2023/12/05 08:48:41;;;;;;;90.57;47.33;;;0.60;99.90;;;;;;5041211;28;20046;-74
2023/12/05 08:51:07;;;;;;;76.50;45.28;;;0.60;99.90;;;;;;5057825;28;20127;-73
2023/12/05 08:53:33;;;;;;;95.70;48.00;;;0.60;99.90;;;;;;5057463;28;20496;-72
2023/12/05 08:55:58;;;;;;;78.53;44.33;;;0.60;99.90;;;;;;5057453;28;20043;-73
2023/12/05 08:58:24;;;;;;;67.90;37.17;;;0.60;99.90;;;;;;5057345;28;20046;-73
2023/12/05 09:00:50;;;;;;;75.63;42.28;;;0.60;99.90;;;;;;5057520;28;20083;-74
2023/12/05 09:03:16;;;;;;;71.90;42.30;;;0.70;99.90;;;;;;5040700;28;20048;-73
2023/12/05 09:05:42;;;;;;;64.97;39.38;;;0.60;99.90;;;;;;5057221;28;20041;-74
2023/12/05 09:08:07;;;;;;;70.57;42.85;;;0.70;99.90;;;;;;5057159;28;20049;-73
2023/12/05 09:10:33;;;;;;;63.30;37.35;;;0.70;99.90;;;;;;5040588;28;20040;-74
2023/12/05 09:12:59;;;;;;;62.70;39.03;;;0.70;99.90;;;;;;5056969;28;20040;-73
2023/12/05 09:15:25;;;;;;;66.35;40.53;;;0.70;99.90;;;;;;5057094;28;20178;-73
2023/12/05 09:17:50;;;;;;;61.10;38.55;;;0.70;99.90;;;;;;5056934;28;20048;-74
2023/12/05 09:20:18;;;;;;;64.57;40.05;;;0.70;99.90;;;;;;5057238;28;20043;-74
2023/12/05 09:22:44;;;;;;;64.43;40.13;;;0.80;99.90;;;;;;5040887;28;20540;-73
2023/12/05 09:25:10;;;;;;;70.60;42.45;;;0.80;99.90;;;;;;5056524;28;20124;-74
2023/12/05 09:27:36;;;;;;;58.88;35.28;;;0.80;99.90;;;;;;5057100;28;20131;-74
2023/12/05 09:30:02;;;;;;;65.78;40.65;;;0.80;99.90;;;;;;5040061;28;20103;-74
2023/12/05 09:32:28;;;;;;;65.45;42.28;;;0.80;99.90;;;;;;5056687;28;20492;-74
2023/12/05 09:34:53;;;;;;;58.58;38.58;;;0.80;99.90;;;;;;5039191;28;20445;-73
2023/12/05 09:37:19;;;;;;;60.25;38.42;;;0.80;99.90;;;;;;5039347;28;20041;-73
2023/12/05 09:39:45;;;;;;;57.67;38.58;;;0.80;99.90;;;;;;5040278;28;20036;-74
2023/12/05 09:42:13;;;;;;;57.67;37.00;;;0.80;99.90;;;;;;5039988;28;20072;-73
2023/12/05 09:44:43;;;;;;;64.82;40.47;;;0.80;99.90;;;;;;5056589;28;20047;-74
2023/12/05 09:47:11;;;;;;;60.25;37.90;;;0.80;99.90;;;;;;5056527;28;20041;-74
2023/12/05 09:49:40;;;;;;;52.92;33.90;;;0.80;99.90;;;;;;5056312;28;20036;-74
2023/12/05 09:52:06;;;;;;;53.88;36.38;;;0.90;99.90;;;;;;5058719;28;20481;-74
2023/12/05 09:54:33;;;;;;;51.40;35.25;;;0.90;99.90;;;;;;5076312;28;20491;-74
2023/12/05 09:56:59;;;;;;;60.28;39.20;;;0.90;99.90;;;;;;5076241;28;20036;-73
2023/12/05 09:59:26;;;;;;;55.25;36.88;;;0.90;99.90;;;;;;5043043;28;20043;-70
2023/12/05 10:01:58;;;;;;;54.95;35.90;;;1.10;99.90;;;;;;5076038;28;20073;-70
2023/12/05 10:04:27;;;;;;;;;;;0.90;99.90;;;;;;5076919;28;20534;-70
2023/12/05 10:06:52;;;;;;;58.13;36.55;;;0.90;99.90;;;;;;5076153;28;19916;-70
2023/12/05 10:09:21;;;;;;;52.88;35.92;;;0.90;99.90;;;;;;5076068;28;20491;-71
2023/12/05 10:11:48;;;;;;;50.83;34.92;;;0.90;99.90;;;;;;5076100;28;20075;-71
2023/12/05 10:14:15;;;;;;;58.63;38.42;;;1.00;99.90;;;;;;5076032;28;20094;-70
2023/12/05 10:16:43;;;;;;;58.10;38.63;;;1.00;99.90;;;;;;5075829;28;20066;-71
2023/12/05 10:19:09;;;;;;;55.55;37.35;;;1.00;99.90;;;;;;5075965;28;20052;-70
2023/12/05 10:21:36;;;;;;;59.13;39.92;;;1.00;99.90;;;;;;5076010;28;20044;-70
2023/12/05 10:24:03;;;;;;;55.60;37.70;;;0.90;99.90;;;;;;5075776;28;20040;-70
2023/12/05 10:26:28;;;;;;;51.92;35.42;;;1.00;99.90;;;;;;5075825;28;20043;-70
2023/12/05 10:28:57;;;;;;;59.42;38.20;;;1.00;99.90;;;;;;5075701;28;20480;-70
2023/12/05 10:31:23;;;;;;;52.95;35.53;;;1.00;99.90;;;;;;5075714;28;20472;-70
2023/12/05 10:33:51;;;;;;;58.55;37.17;;;1.00;99.90;;;;;;5075558;28;20051;-71
2023/12/05 10:36:17;;;;;;;47.75;33.10;;;1.20;99.90;;;;;;5075376;28;20044;-70
2023/12/05 10:38:44;;;;;;;53.28;36.60;;;0.90;99.90;;;;;;5059268;28;20614;-70
2023/12/05 10:41:10;;;;;;;50.10;35.10;;;0.90;99.90;;;;;;5058907;28;20154;-70
2023/12/05 10:43:35;;;;;;;54.15;37.00;;;1.10;99.90;;;;;;5075296;28;20144;-70
2023/12/05 10:46:03;;;;;;;52.85;36.70;;;0.90;99.90;;;;;;5075376;28;20567;-70
2023/12/05 10:48:30;;;;;;;52.60;35.45;;;0.90;99.90;;;;;;5075373;28;20085;-70
2023/12/05 10:50:56;;;;;;;45.20;30.88;;;0.90;99.90;;;;;;5075299;28;20047;-70
2023/12/05 10:53:22;;;;;;;49.15;34.00;;;1.00;99.90;;;;;;5075057;28;20110;-70
2023/12/05 10:55:48;;;;;;;54.45;36.80;;;1.20;99.90;;;;;;5075267;28;20043;-71
2023/12/05 10:58:15;;;;;;;50.38;35.35;;;1.00;99.90;;;;;;5075166;28;20537;-70
2023/12/05 11:00:41;;;;;;;51.75;35.92;;;0.90;99.90;;;;;;5058617;28;20036;-70
2023/12/05 11:03:07;;;;;;;50.05;34.42;;;0.90;99.90;;;;;;5074731;28;20036;-71
2023/12/05 11:05:34;;;;;;;54.80;37.10;;;1.00;99.90;;;;;;5075044;28;20039;-71
2023/12/05 11:08:01;;;;;;;50.30;33.42;;;1.00;99.90;;;;;;5058514;28;20044;-71
2023/12/05 11:10:28;;;;;;;52.75;35.95;;;1.00;99.90;;;;;;5075146;28;20043;-70
2023/12/05 11:12:55;;;;;;;53.83;36.58;;;1.00;99.90;;;;;;5075058;28;20051;-70
2023/12/05 11:15:28;;;;;;;48.05;33.92;;;1.10;99.90;;;;;;5074830;28;20040;-70
2023/12/05 11:18:02;;;;;;;48.80;33.35;;;1.20;99.90;;;;;;5074956;28;20036;-70
2023/12/05 11:20:36;;;;;;;46.63;33.28;;;1.10;99.90;;;;;;5075067;28;20142;-70
2023/12/05 11:23:20;;;;;;;51.65;35.72;;;1.10;99.90;;;;;;5058223;28;20058;-71
2023/12/05 11:26:11;;;;;;;52.92;33.97;;;1.10;99.90;;;;;;5074838;28;20123;-71
2023/12/05 11:29:01;;;;;;;52.08;34.80;;;1.00;99.90;;;;;;5074448;28;20040;-70
2023/12/05 11:31:27;;;;;;;66.28;42.30;;;1.10;99.90;;;;;;5074502;28;20102;-70
2023/12/05 11:34:04;;;;;;;48.08;32.28;;;1.00;99.90;;;;;;5092737;28;20476;-70
2023/12/05 11:36:41;;;;;;;75.07;45.92;;;1.10;99.90;;;;;;5074610;28;20043;-70
2023/12/05 11:39:07;;;;;;;56.65;36.58;;;1.10;99.90;;;;;;5074766;28;20036;-71
2023/12/05 11:41:33;;;;;;;102.20;60.72;;;1.10;99.90;;;;;;5058274;28;20050;-70
2023/12/05 11:44:13;;;;;;;62.40;41.25;;;1.10;99.90;;;;;;5074764;28;20118;-70
2023/12/05 11:46:49;;;;;;;55.40;37.33;;;1.10;99.90;;;;;;5074977;28;20435;-70
2023/12/05 11:49:37;;;;;;;55.13;36.45;;;1.10;99.90;;;;;;5074600;28;20044;-71
2023/12/05 11:52:10;;;;;;;52.45;35.38;;;1.10;99.90;;;;;;5074593;28;20488;-71
2023/12/05 11:54:36;;;;;;;53.83;35.75;;;1.10;99.90;;;;;;5074781;28;20555;-70
2023/12/05 11:57:13;;;;;;;52.72;35.22;;;1.10;99.90;;;;;;5074802;28;20542;-70
2023/12/05 11:59:40;;;;;;;59.08;37.95;;;1.10;99.90;;;;;;5074443;28;20051;-70
2023/12/05 12:02:08;;;;;;;57.42;36.30;;;1.10;99.90;;;;;;5074527;28;20090;-69
2023/12/05 12:04:33;;;;;;;52.13;35.33;;;1.10;99.90;;;;;;5074439;28;20040;-70
2023/12/05 12:06:59;;;;;;;59.47;37.05;;;1.30;99.90;;;;;;5074607;28;20480;-70
2023/12/05 12:09:26;;;;;;;57.30;37.20;;;1.10;99.90;;;;;;5074459;28;20040;-70
2023/12/05 12:11:53;;;;;;;77.97;45.00;;;1.20;99.90;;;;;;5074386;28;20127;-70
2023/12/05 12:14:19;;;;;;;56.65;37.65;;;1.20;99.90;;;;;;5076342;28;20054;-70
2023/12/05 12:16:50;;;;;;;60.20;43.80;;;1.20;99.90;;;;;;5078192;28;20118;-70
2023/12/05 12:19:16;;;;;;;62.25;42.72;;;1.20;99.90;;;;;;5061689;28;20047;-70
2023/12/05 12:21:45;;;;;;;133.55;82.00;;;1.20;99.90;;;;;;5078430;28;20036;-70
2023/12/05 12:24:22;;;;;;;103.05;59.03;;;1.20;99.90;;;;;;5078228;28;20488;-70
2023/12/05 12:26:55;;;;;;;138.32;77.25;;;1.30;99.90;;;;;;5061513;28;20044;-69
2023/12/05 12:29:21;;;;;;;105.28;70.28;;;1.20;99.90;;;;;;5078084;28;20050;-69
2023/12/05 12:31:48;;;;;;;63.53;39.38;;;1.20;99.90;;;;;;5077986;28;20044;-70
2023/12/05 12:34:27;;;;;;;61.97;41.00;;;1.20;99.90;;;;;;5061742;28;20396;-70
2023/12/05 12:36:54;;;;;;;60.20;38.78;;;1.10;99.90;;;;;;5077805;28;20045;-70